createdAt,value
2018-01-22T00:02:01.595Z,86.10
2018-01-22T00:04:29.745Z,86.10
2018-01-22T00:06:57.888Z,86.20
2018-01-22T00:09:25.990Z,85.40
2018-01-22T00:11:54.136Z,83.70
2018-01-22T00:14:22.715Z,83.30
2018-01-22T00:16:51.358Z,83.60
2018-01-22T00:19:20.235Z,83.50
2018-01-22T00:21:48.362Z,83.50
2018-01-22T00:24:16.488Z,83.50
2018-01-22T00:26:45.391Z,82.60
2018-01-22T00:29:14.277Z,82.30
2018-01-22T00:31:42.441Z,82.30
2018-01-22T00:34:10.540Z,82.90
2018-01-22T00:36:38.680Z,83.20
2018-01-22T00:39:06.778Z,83.70
2018-01-22T00:41:34.907Z,83.90
2018-01-22T00:44:03.034Z,84.60
2018-01-22T00:46:31.175Z,84.70
2018-01-22T00:48:59.285Z,84.00
2018-01-22T00:51:27.428Z,84.20
2018-01-22T00:53:55.526Z,83.90
2018-01-22T00:56:23.669Z,84.00
2018-01-22T00:58:51.785Z,84.30
2018-01-22T01:01:19.911Z,84.90
2018-01-22T01:03:48.016Z,84.90
2018-01-22T01:06:16.167Z,85.80
2018-01-22T01:08:44.261Z,85.80
2018-01-22T01:11:12.393Z,86.20
2018-01-22T01:13:40.502Z,86.80
2018-01-22T01:16:08.653Z,87.10
2018-01-22T01:18:36.759Z,87.30
2018-01-22T01:21:04.891Z,87.70
2018-01-22T01:23:32.989Z,87.70
2018-01-22T01:26:01.395Z,88.20
2018-01-22T01:28:29.738Z,88.80
2018-01-22T01:30:58.642Z,88.90
2018-01-22T01:33:26.765Z,88.90
2018-01-22T01:35:54.908Z,89.20
2018-01-22T01:38:23.019Z,89.00
2018-01-22T01:40:51.164Z,89.60
2018-01-22T01:43:19.278Z,88.50
2018-01-22T01:45:47.437Z,89.40
2018-01-22T01:48:15.565Z,89.00
2018-01-22T01:50:43.703Z,89.00
2018-01-22T01:53:12.591Z,89.70
2018-01-22T01:55:40.726Z,89.70
2018-01-22T01:58:08.839Z,89.80
2018-01-22T02:00:36.979Z,89.90
2018-01-22T02:03:05.103Z,89.70
2018-01-22T02:05:34.005Z,88.70
2018-01-22T02:08:02.486Z,88.60
2018-01-22T02:10:30.718Z,89.00
2018-01-22T02:12:58.829Z,89.10
2018-01-22T02:15:26.972Z,89.10
2018-01-22T02:17:55.532Z,89.00
2018-01-22T02:20:23.636Z,89.30
2018-01-22T02:22:51.814Z,89.40
2018-01-22T02:25:19.910Z,89.60
2018-01-22T02:27:48.050Z,89.30
2018-01-22T02:30:16.155Z,88.70
2018-01-22T02:32:44.291Z,88.20
2018-01-22T02:35:13.190Z,88.40
2018-01-22T02:37:41.339Z,88.00
2018-01-22T02:40:09.447Z,87.90
2018-01-22T02:42:38.342Z,88.20
2018-01-22T02:45:07.224Z,88.20
2018-01-22T02:47:35.358Z,88.20
2018-01-22T02:50:03.494Z,87.10
2018-01-22T02:52:31.635Z,88.10
2018-01-22T02:54:59.738Z,87.70
2018-01-22T02:57:27.898Z,88.10
2018-01-22T02:59:56.784Z,87.70
2018-01-22T03:02:26.154Z,87.90
2018-01-22T03:04:54.269Z,87.90
2018-01-22T03:07:23.183Z,88.20
2018-01-22T03:09:51.291Z,88.20
2018-01-22T03:12:19.443Z,88.10
2018-01-22T03:14:47.555Z,88.00
2018-01-22T03:17:15.723Z,88.60
2018-01-22T03:19:43.836Z,88.20
2018-01-22T03:22:11.972Z,88.00
2018-01-22T03:24:40.078Z,87.70
2018-01-22T03:27:08.207Z,88.20
2018-01-22T03:29:36.328Z,88.90
2018-01-22T03:32:04.467Z,88.00
2018-01-22T03:34:32.574Z,87.70
2018-01-22T03:37:00.728Z,87.50
2018-01-22T03:39:29.622Z,87.80
2018-01-22T03:41:58.530Z,87.80
2018-01-22T03:44:27.098Z,87.80
2018-01-22T03:46:55.986Z,87.90
2018-01-22T03:49:24.871Z,87.90
2018-01-22T03:51:53.782Z,88.50
2018-01-22T03:54:21.895Z,88.20
2018-01-22T03:56:50.031Z,88.30
2018-01-22T03:59:18.144Z,88.30
2018-01-22T04:01:46.297Z,88.40
2018-01-22T04:04:14.442Z,88.40
2018-01-22T04:06:43.343Z,87.70
2018-01-22T04:09:11.466Z,87.60
2018-01-22T04:11:39.607Z,88.20
2018-01-22T04:14:07.715Z,88.70
2018-01-22T04:16:35.884Z,89.20
2018-01-22T04:19:03.990Z,90.10
2018-01-22T04:21:32.890Z,90.40
2018-01-22T04:24:01.773Z,90.40
2018-01-22T04:26:30.680Z,90.20
2018-01-22T04:28:58.791Z,90.20
2018-01-22T04:31:26.930Z,90.10
2018-01-22T04:33:55.034Z,89.90
2018-01-22T04:36:23.167Z,90.30
2018-01-22T04:38:51.274Z,90.00
2018-01-22T04:41:19.431Z,89.30
2018-01-22T04:43:47.534Z,89.30
2018-01-22T04:46:15.661Z,90.00
2018-01-22T04:48:43.769Z,88.50
2018-01-22T04:51:11.899Z,88.70
2018-01-22T04:53:40.082Z,88.70
2018-01-22T04:56:08.971Z,88.80
2018-01-22T04:58:37.902Z,88.90
2018-01-22T05:01:06.042Z,88.90
2018-01-22T05:03:34.183Z,89.80
2018-01-22T05:06:02.301Z,89.80
2018-01-22T05:08:30.422Z,89.80
2018-01-22T05:10:58.540Z,90.00
2018-01-22T05:13:26.689Z,90.10
2018-01-22T05:15:54.806Z,89.80
2018-01-22T05:18:22.949Z,89.50
2018-01-22T05:20:51.823Z,89.60
2018-01-22T05:23:20.738Z,89.60
2018-01-22T05:25:48.850Z,89.60
2018-01-22T05:28:16.995Z,90.00
2018-01-22T05:30:45.123Z,89.40
2018-01-22T05:33:13.251Z,90.00
2018-01-22T05:35:41.376Z,89.10
2018-01-22T05:38:10.280Z,90.00
2018-01-22T05:40:39.175Z,89.70
2018-01-22T05:43:07.348Z,89.70
2018-01-22T05:45:36.214Z,90.50
2018-01-22T05:48:04.376Z,90.20
2018-01-22T05:50:32.474Z,90.90
2018-01-22T05:53:01.374Z,90.60
2018-01-22T05:55:30.255Z,90.90
2018-01-22T05:57:59.177Z,91.50
2018-01-22T06:00:27.298Z,91.50
2018-01-22T06:02:55.433Z,91.30
2018-01-22T06:05:23.554Z,91.30
2018-01-22T06:07:51.697Z,91.60
2018-01-22T06:10:19.831Z,92.00
2018-01-22T06:12:47.987Z,91.90
2018-01-22T06:15:16.870Z,92.00
2018-01-22T06:17:45.801Z,92.00
2018-01-22T06:20:13.927Z,92.00
2018-01-22T06:22:42.078Z,92.00
2018-01-22T06:25:10.208Z,92.50
2018-01-22T06:27:39.125Z,92.70
2018-01-22T06:30:07.245Z,92.60
2018-01-22T06:32:35.400Z,92.90
2018-01-22T06:35:03.502Z,92.90
2018-01-22T06:37:32.413Z,93.10
2018-01-22T06:40:00.542Z,93.10
2018-01-22T06:42:28.675Z,93.10
2018-01-22T06:44:56.790Z,93.40
2018-01-22T06:47:24.935Z,93.40
2018-01-22T06:49:53.048Z,93.30
2018-01-22T06:52:21.950Z,93.90
2018-01-22T06:54:50.843Z,93.50
2018-01-22T06:57:19.754Z,93.70
2018-01-22T06:59:47.889Z,93.60
2018-01-22T07:02:16.031Z,93.80
2018-01-22T07:04:44.144Z,93.90
2018-01-22T07:07:13.055Z,93.70
2018-01-22T07:09:41.171Z,93.70
2018-01-22T07:12:09.302Z,93.90
2018-01-22T07:14:37.427Z,93.60
2018-01-22T07:17:05.677Z,93.60
2018-01-22T07:19:33.803Z,93.80
2018-01-22T07:22:01.957Z,93.80
2018-01-22T07:24:30.575Z,93.70
2018-01-22T07:26:59.480Z,93.80
2018-01-22T07:29:27.612Z,93.80
2018-01-22T07:31:55.739Z,93.70
2018-01-22T07:34:23.907Z,93.60
2018-01-22T07:36:52.048Z,93.70
2018-01-22T07:39:20.947Z,94.20
2018-01-22T07:41:49.824Z,93.90
2018-01-22T07:44:17.968Z,93.90
2018-01-22T07:46:46.088Z,94.00
2018-01-22T07:49:14.990Z,93.80
2018-01-22T07:51:43.130Z,93.80
2018-01-22T07:54:11.274Z,93.80
2018-01-22T07:56:39.447Z,94.00
2018-01-22T07:59:07.585Z,94.10
2018-01-22T08:01:35.699Z,93.90
2018-01-22T08:04:04.403Z,93.90
2018-01-22T08:06:32.511Z,94.00
2018-01-22T08:09:01.130Z,94.10
2018-01-22T08:11:29.235Z,94.10
2018-01-22T08:13:57.491Z,94.20
2018-01-22T08:16:26.113Z,93.90
2018-01-22T08:18:55.008Z,94.30
2018-01-22T08:21:23.900Z,94.40
2018-01-22T08:23:52.850Z,94.50
2018-01-22T08:26:20.971Z,94.50
2018-01-22T08:28:49.876Z,94.30
2018-01-22T08:31:17.989Z,94.30
2018-01-22T08:33:46.132Z,94.40
2018-01-22T08:36:14.238Z,94.30
2018-01-22T08:38:42.379Z,93.90
2018-01-22T08:41:10.491Z,94.10
2018-01-22T08:43:38.641Z,93.80
2018-01-22T08:46:06.969Z,93.80
2018-01-22T08:48:36.187Z,93.60
2018-01-22T08:51:04.933Z,93.80
2018-01-22T08:53:33.063Z,94.20
2018-01-22T08:56:01.517Z,94.20
2018-01-22T08:58:29.909Z,94.40
2018-01-22T09:00:58.033Z,94.50
2018-01-22T09:03:26.172Z,94.60
2018-01-22T09:05:54.306Z,94.70
2018-01-22T09:08:23.206Z,94.80
2018-01-22T09:10:52.071Z,94.70
2018-01-22T09:13:20.214Z,94.70
2018-01-22T09:15:48.318Z,94.90
2018-01-22T09:18:16.456Z,94.80
2018-01-22T09:20:44.659Z,95.00
2018-01-22T09:23:12.795Z,95.10
2018-01-22T09:25:40.906Z,95.10
2018-01-22T09:28:09.067Z,95.00
2018-01-22T09:30:37.186Z,95.20
2018-01-22T09:33:06.079Z,95.30
2018-01-22T09:35:34.188Z,95.30
2018-01-22T09:38:02.910Z,95.40
2018-01-22T09:40:31.402Z,95.20
2018-01-22T09:42:59.543Z,95.40
2018-01-22T09:45:27.654Z,95.00
2018-01-22T09:47:55.807Z,95.20
2018-01-22T09:50:24.119Z,94.80
2018-01-22T09:52:52.274Z,94.90
2018-01-22T09:55:20.386Z,94.80
2018-01-22T09:57:48.531Z,95.10
2018-01-22T10:00:17.406Z,94.10
2018-01-22T10:02:45.813Z,94.10
2018-01-22T10:05:14.709Z,94.00
2018-01-22T10:07:42.816Z,94.00
2018-01-22T10:10:11.259Z,93.90
2018-01-22T10:12:40.764Z,94.20
2018-01-22T10:15:09.924Z,93.90
2018-01-22T10:17:40.568Z,93.90
2018-01-22T10:20:08.917Z,93.90
2018-01-22T10:22:37.669Z,93.80
2018-01-22T10:25:05.917Z,94.00
2018-01-22T10:27:34.015Z,93.90
2018-01-22T10:30:02.560Z,93.70
2018-01-22T10:32:30.774Z,93.60
2018-01-22T10:35:04.676Z,93.40
2018-01-22T10:37:33.338Z,93.90
2018-01-22T10:40:02.235Z,93.30
2018-01-22T10:42:31.109Z,93.60
2018-01-22T10:44:59.855Z,93.60
2018-01-22T10:47:34.346Z,93.60
2018-01-22T10:50:04.605Z,93.70
2018-01-22T10:52:35.801Z,94.00
2018-01-22T10:55:05.010Z,93.80
2018-01-22T10:57:33.886Z,93.40
2018-01-22T11:00:02.014Z,93.70
2018-01-22T11:02:44.996Z,93.60
2018-01-22T11:05:13.901Z,93.40
2018-01-22T11:07:42.480Z,93.40
2018-01-22T11:10:10.636Z,93.30
2018-01-22T11:12:39.525Z,94.10
2018-01-22T11:15:08.416Z,94.00
2018-01-22T11:17:36.514Z,93.90
2018-01-22T11:20:05.246Z,93.80
2018-01-22T11:22:33.357Z,93.30
2018-01-22T11:25:02.654Z,93.00
2018-01-22T11:27:30.944Z,93.00
2018-01-22T11:29:59.830Z,93.30
2018-01-22T11:32:28.697Z,93.10
2018-01-22T11:34:56.831Z,93.10
2018-01-22T11:37:24.937Z,93.70
2018-01-22T11:39:53.073Z,93.30
2018-01-22T11:42:21.180Z,93.20
2018-01-22T11:44:49.307Z,92.90
2018-01-22T11:47:17.421Z,93.40
2018-01-22T11:49:45.560Z,93.70
2018-01-22T11:52:13.668Z,94.10
2018-01-22T11:54:41.791Z,93.90
2018-01-22T11:57:09.896Z,93.20
2018-01-22T11:59:38.029Z,93.00
2018-01-22T12:02:06.897Z,93.20
2018-01-22T12:04:35.039Z,93.20
2018-01-22T12:07:04.307Z,93.10
2018-01-22T12:09:32.426Z,93.10
2018-01-22T12:12:00.531Z,92.90
2018-01-22T12:14:29.418Z,93.20
2018-01-22T12:16:58.297Z,92.70
2018-01-22T12:19:27.214Z,92.50
2018-01-22T12:21:55.307Z,92.50
2018-01-22T12:24:23.438Z,92.60
2018-01-22T12:26:52.309Z,93.50
2018-01-22T12:29:20.452Z,93.50
2018-01-22T12:31:48.578Z,94.00
2018-01-22T12:34:17.976Z,93.10
2018-01-22T12:36:46.898Z,92.20
2018-01-22T12:39:15.027Z,92.20
2018-01-22T12:41:43.115Z,92.40
2018-01-22T12:44:12.007Z,93.60
2018-01-22T12:46:40.880Z,93.70
2018-01-22T12:49:09.011Z,93.70
2018-01-22T12:51:37.119Z,93.80
2018-01-22T12:54:05.316Z,93.30
2018-01-22T12:56:34.192Z,92.60
2018-01-22T12:59:02.313Z,93.00
2018-01-22T13:01:31.183Z,93.00
2018-01-22T13:04:00.098Z,92.70
2018-01-22T13:06:28.199Z,92.70
2018-01-22T13:08:56.359Z,93.10
2018-01-22T13:11:24.477Z,93.10
2018-01-22T13:13:53.376Z,91.80
2018-01-22T13:16:22.250Z,91.30
2018-01-22T13:18:50.412Z,91.30
2018-01-22T13:21:18.519Z,92.30
2018-01-22T13:23:47.407Z,93.00
2018-01-22T13:26:16.271Z,92.60
2018-01-22T13:28:44.400Z,92.60
2018-01-22T13:31:12.509Z,92.30
2018-01-22T13:33:40.611Z,92.60
2018-01-22T13:36:09.504Z,92.50
2018-01-22T13:38:38.386Z,92.40
2018-01-22T13:41:12.460Z,92.30
2018-01-22T13:43:40.558Z,92.30
2018-01-22T13:46:08.695Z,92.00
2018-01-22T13:48:36.793Z,92.20
2018-01-22T13:51:04.916Z,91.80
2018-01-22T13:53:33.023Z,93.20
2018-01-22T13:56:01.285Z,93.20
2018-01-22T13:58:29.583Z,93.10
2018-01-22T14:00:57.710Z,92.50
2018-01-22T14:03:26.589Z,92.90
2018-01-22T14:05:55.491Z,92.50
2018-01-22T14:08:23.593Z,92.40
2018-01-22T14:10:51.716Z,92.60
2018-01-22T14:13:19.822Z,92.80
2018-01-22T14:15:48.308Z,92.70
2018-01-22T14:18:17.157Z,92.60
2018-01-22T14:20:45.288Z,92.60
2018-01-22T14:23:13.397Z,92.80
2018-01-22T14:25:41.528Z,93.50
2018-01-22T14:28:09.634Z,93.80
2018-01-22T14:30:37.755Z,93.60
2018-01-22T14:33:05.877Z,93.70
2018-01-22T14:35:34.004Z,93.40
2018-01-22T14:38:02.403Z,93.70
2018-01-22T14:40:30.673Z,93.80
2018-01-22T14:42:58.779Z,93.60
2018-01-22T14:45:27.101Z,93.50
2018-01-22T14:47:55.974Z,93.60
2018-01-22T14:50:24.125Z,93.60
2018-01-22T14:52:52.248Z,94.30
2018-01-22T14:55:21.130Z,94.20
2018-01-22T14:57:49.245Z,94.20
2018-01-22T15:00:17.379Z,93.40
2018-01-22T15:02:45.492Z,93.80
2018-01-22T15:05:14.211Z,93.90
2018-01-22T15:07:43.094Z,94.20
2018-01-22T15:10:11.226Z,94.20
2018-01-22T15:12:39.470Z,94.10
2018-01-22T15:15:08.376Z,93.70
2018-01-22T15:17:36.528Z,93.60
2018-01-22T15:20:04.651Z,93.50
2018-01-22T15:22:32.773Z,93.80
2018-01-22T15:25:00.908Z,93.90
2018-01-22T15:27:29.021Z,93.70
2018-01-22T15:29:57.915Z,93.90
2018-01-22T15:32:26.792Z,93.90
2018-01-22T15:34:54.920Z,94.00
2018-01-22T15:37:23.029Z,93.70
2018-01-22T15:39:51.160Z,94.40
2018-01-22T15:42:19.274Z,94.00
2018-01-22T15:44:47.402Z,94.30
2018-01-22T15:47:15.647Z,95.00
2018-01-22T15:49:44.551Z,94.80
2018-01-22T15:52:12.934Z,94.80
2018-01-22T15:54:41.816Z,93.90
2018-01-22T15:59:40.452Z,93.90
2018-01-22T16:02:08.555Z,93.90
2018-01-22T16:04:36.695Z,93.80
2018-01-22T16:07:04.804Z,94.30
2018-01-22T16:09:32.926Z,94.40
2018-01-22T16:12:01.111Z,94.20
2018-01-22T16:14:29.227Z,94.30
2018-01-22T16:16:57.367Z,94.30
2018-01-22T16:19:25.955Z,94.40
2018-01-22T16:21:54.104Z,94.60
2018-01-22T16:24:22.300Z,94.70
2018-01-22T16:26:50.450Z,94.30
2018-01-22T16:29:18.567Z,94.70
2018-01-22T16:31:46.706Z,94.40
2018-01-22T16:34:14.827Z,93.90
2018-01-22T16:36:43.142Z,94.60
2018-01-22T16:39:11.259Z,94.30
2018-01-22T16:41:41.012Z,95.00
2018-01-22T16:44:09.162Z,95.00
2018-01-22T16:46:38.229Z,95.30
2018-01-22T16:49:06.454Z,95.30
2018-01-22T16:51:35.362Z,95.20
2018-01-22T16:54:03.641Z,95.20
2018-01-22T16:56:32.050Z,95.40
2018-01-22T16:59:00.167Z,95.30
2018-01-22T17:01:28.299Z,95.10
2018-01-22T17:03:56.444Z,95.20
2018-01-22T17:06:26.445Z,94.70
2018-01-22T17:08:55.554Z,94.70
2018-01-22T17:11:23.686Z,94.90
2018-01-22T17:13:51.794Z,94.60
2018-01-22T17:16:19.935Z,94.40
2018-01-22T17:18:48.072Z,94.50
2018-01-22T17:21:16.201Z,94.40
2018-01-22T17:23:45.077Z,94.60
2018-01-22T17:26:13.221Z,94.60
2018-01-22T17:28:41.333Z,94.30
2018-01-22T17:31:09.488Z,94.60
2018-01-22T17:33:37.602Z,94.60
2018-01-22T17:36:05.744Z,94.60
2018-01-22T17:38:33.857Z,94.40
2018-01-22T17:41:02.691Z,94.10
2018-01-22T17:43:31.611Z,94.40
2018-01-22T17:46:00.539Z,94.60
2018-01-22T17:48:28.778Z,94.60
2018-01-22T17:50:57.723Z,94.30
2018-01-22T17:53:25.899Z,94.30
2018-01-22T17:55:54.031Z,94.40
2018-01-22T17:58:22.910Z,94.40
2018-01-22T18:00:51.850Z,94.70
2018-01-22T18:03:19.979Z,94.40
2018-01-22T18:05:49.442Z,94.40
2018-01-22T18:08:17.743Z,94.60
2018-01-22T18:10:45.889Z,93.90
2018-01-22T18:13:14.041Z,93.00
2018-01-22T18:15:42.176Z,93.00
2018-01-22T18:18:11.067Z,93.70
2018-01-22T18:20:39.203Z,93.60
2018-01-22T18:23:07.320Z,93.40
2018-01-22T18:25:36.246Z,93.50
2018-01-22T18:28:04.681Z,93.50
2018-01-22T18:30:33.602Z,92.70
2018-01-22T18:33:02.261Z,92.60
2018-01-22T18:35:30.461Z,92.40
2018-01-22T18:37:58.613Z,92.70
2018-01-22T18:40:26.780Z,92.90
2018-01-22T18:42:58.192Z,93.20
2018-01-22T18:45:26.360Z,93.40
2018-01-22T18:47:54.483Z,93.70
2018-01-22T18:50:22.589Z,94.60
2018-01-22T18:52:50.753Z,94.10
2018-01-22T18:55:18.871Z,94.70
2018-01-22T18:57:47.224Z,94.80
2018-01-22T19:00:15.393Z,95.10
2018-01-22T19:02:43.544Z,94.60
2018-01-22T19:05:11.706Z,94.20
2018-01-22T19:07:40.623Z,94.50
2018-01-22T19:10:09.319Z,94.50
2018-01-22T19:12:37.537Z,94.00
2018-01-22T19:17:36.100Z,93.60
2018-01-22T19:20:04.206Z,93.50
2018-01-22T19:22:32.343Z,93.20
2018-01-22T19:25:00.458Z,92.90
2018-01-22T19:27:28.594Z,93.00
2018-01-22T19:29:56.710Z,93.60
2018-01-22T19:32:24.879Z,94.30
2018-01-22T19:34:53.282Z,94.00
2018-01-22T19:37:22.200Z,94.50
2018-01-22T19:39:50.307Z,94.50
2018-01-22T19:42:18.442Z,93.90
2018-01-22T19:44:46.547Z,94.00
2018-01-22T19:47:14.684Z,94.10
2018-01-22T19:49:42.798Z,93.80
2018-01-22T19:52:10.943Z,94.20
2018-01-22T19:54:39.050Z,94.30
2018-01-22T19:57:07.187Z,94.30
2018-01-22T19:59:35.292Z,94.00
2018-01-22T20:02:03.431Z,93.90
2018-01-22T20:04:31.635Z,93.80
2018-01-22T20:07:00.137Z,93.60
2018-01-22T20:09:28.254Z,93.50
2018-01-22T20:11:56.412Z,93.50
2018-01-22T20:14:25.287Z,93.60
2018-01-22T20:16:53.445Z,93.60
2018-01-22T20:19:21.555Z,93.70
2018-01-22T20:21:50.459Z,93.80
2018-01-22T20:24:18.559Z,93.80
2018-01-22T20:26:46.699Z,94.00
2018-01-22T20:29:14.821Z,93.40
2018-01-22T20:31:42.959Z,93.60
2018-01-22T20:34:11.071Z,93.70
2018-01-22T20:36:39.199Z,94.40
2018-01-22T20:39:07.334Z,94.60
2018-01-22T20:41:35.459Z,94.90
2018-01-22T20:44:03.934Z,95.00
2018-01-22T20:46:32.110Z,95.10
2018-01-22T20:49:00.222Z,95.00
2018-01-22T20:51:28.401Z,95.20
2018-01-22T20:53:57.300Z,95.10
2018-01-22T20:56:25.420Z,95.10
2018-01-22T20:58:53.563Z,95.00
2018-01-22T21:01:23.465Z,94.30
2018-01-22T21:03:51.582Z,94.30
2018-01-22T21:06:19.716Z,94.30
2018-01-22T21:08:48.959Z,94.40
2018-01-22T21:11:17.089Z,94.40
2018-01-22T21:13:45.974Z,94.50
2018-01-22T21:16:14.112Z,94.30
2018-01-22T21:18:42.229Z,93.40
2018-01-22T21:21:11.102Z,93.40
2018-01-22T21:23:39.226Z,93.40
2018-01-22T21:26:07.336Z,93.60
2018-01-22T21:28:35.464Z,93.30
2018-01-22T21:31:03.814Z,93.50
2018-01-22T21:33:32.709Z,93.60
2018-01-22T21:36:01.609Z,93.30
2018-01-22T21:38:30.499Z,92.80
2018-01-22T21:40:59.369Z,93.10
2018-01-22T21:43:27.508Z,93.10
2018-01-22T21:45:55.643Z,93.10
2018-01-22T21:48:24.537Z,93.10
2018-01-22T21:50:53.166Z,93.10
2018-01-22T21:53:21.311Z,93.00
2018-01-22T21:55:49.436Z,92.90
2018-01-22T21:58:17.570Z,92.70
2018-01-22T22:00:45.683Z,93.10
2018-01-22T22:03:13.810Z,92.60
2018-01-22T22:05:42.043Z,92.90
2018-01-22T22:08:10.260Z,93.00
2018-01-22T22:10:38.374Z,92.60
2018-01-22T22:13:06.494Z,92.20
2018-01-22T22:15:34.603Z,92.30
2018-01-22T22:18:02.739Z,92.30
2018-01-22T22:20:30.844Z,92.30
2018-01-22T22:22:58.988Z,92.30
2018-01-22T22:25:27.086Z,92.20
2018-01-22T22:27:55.993Z,92.80
2018-01-22T22:30:24.095Z,92.80
2018-01-22T22:32:52.996Z,92.70
2018-01-22T22:35:21.878Z,92.40
2018-01-22T22:37:50.772Z,92.30
2018-01-22T22:40:19.657Z,92.50
2018-01-22T22:42:48.556Z,92.70
2018-01-22T22:45:17.443Z,92.70
2018-01-22T22:47:46.395Z,92.40
2018-01-22T22:50:14.484Z,92.40
2018-01-22T22:52:42.635Z,92.30
2018-01-22T22:55:10.741Z,92.70
2018-01-22T22:57:39.660Z,92.80
2018-01-22T23:00:07.778Z,92.70
2018-01-22T23:02:37.674Z,92.60
2018-01-22T23:05:05.788Z,92.90
2018-01-22T23:07:33.928Z,92.90
2018-01-22T23:10:02.462Z,93.00
2018-01-22T23:12:30.729Z,92.70
2018-01-22T23:14:58.847Z,92.70
2018-01-22T23:17:26.983Z,93.10
2018-01-22T23:19:55.883Z,92.50
2018-01-22T23:22:24.789Z,92.90
2018-01-22T23:24:52.900Z,92.80
2018-01-22T23:27:21.044Z,92.70
2018-01-22T23:29:49.146Z,92.80
2018-01-22T23:32:18.046Z,92.90
2018-01-22T23:34:46.161Z,92.90
2018-01-22T23:37:14.313Z,93.00
2018-01-22T23:39:42.418Z,93.10
2018-01-22T23:42:10.566Z,93.20
2018-01-22T23:44:38.802Z,93.00
2018-01-22T23:47:06.923Z,93.00
2018-01-22T23:49:35.807Z,93.00
2018-01-22T23:52:04.790Z,92.70
2018-01-22T23:54:32.899Z,92.70
2018-01-22T23:57:01.007Z,92.80
2018-01-22T23:59:29.144Z,93.00
